FGN53JO UZST-UZFF
Flight info
| Callsign | FGN53JO |
|---|---|
| Flight time | N/A |
| Altitude | 30000 |
| Route | KEKAD2B KEKAD DCT ETVIN B165 SX DCT MIRVI DCT BAKMO BAKMO2Y |
| Aircraft | A20N/M-SDE2E3FGHIRWXY/LB1 |
Departure
| Time | N/A |
|---|---|
| Airport | UZST |
Arrival
| Time | 2026-05-04 13:37 |
|---|---|
| Airport | Fergana International Airport (UZFF) |
| Time | Latitude | Longitude | Altitude | Speed | Heading |
|---|---|---|---|---|---|
| 2026-05-04 12:30 | 37.28220 | 67.31993 | 1031 ft | 0 kts | 235° |
| 2026-05-04 12:41 | 37.28218 | 67.31989 | 1058 ft | 1 kts | 244° |
| 2026-05-04 12:41 | 37.28221 | 67.31978 | 1031 ft | 1 kts | 298° |
| 2026-05-04 12:41 | 37.28230 | 67.31974 | 1031 ft | 1 kts | 344° |
| 2026-05-04 12:42 | 37.28240 | 67.31972 | 1031 ft | 0 kts | 350° |
| 2026-05-04 12:42 | 37.28242 | 67.31971 | 1031 ft | 1 kts | 350° |
| 2026-05-04 12:42 | 37.28255 | 67.31968 | 1031 ft | 3 kts | 350° |
| 2026-05-04 12:43 | 37.28297 | 67.31958 | 1031 ft | 9 kts | 349° |
| 2026-05-04 12:43 | 37.28375 | 67.31933 | 1032 ft | 12 kts | 358° |
| 2026-05-04 12:43 | 37.28432 | 67.32006 | 1034 ft | 13 kts | 70° |
| 2026-05-04 12:43 | 37.28467 | 67.32114 | 1034 ft | 15 kts | 68° |
| 2026-05-04 12:44 | 37.28511 | 67.32237 | 1035 ft | 16 kts | 65° |
| 2026-05-04 12:44 | 37.28559 | 67.32376 | 1036 ft | 18 kts | 67° |
| 2026-05-04 12:44 | 37.28593 | 67.32474 | 1037 ft | 7 kts | 62° |
| 2026-05-04 12:44 | 37.28639 | 67.32503 | 1037 ft | 8 kts | 353° |
| 2026-05-04 12:45 | 37.28705 | 67.32493 | 1038 ft | 11 kts | 353° |
| 2026-05-04 12:45 | 37.28793 | 67.32480 | 1037 ft | 15 kts | 353° |
| 2026-05-04 12:45 | 37.28911 | 67.32462 | 1034 ft | 19 kts | 353° |
| 2026-05-04 12:45 | 37.29039 | 67.32441 | 1033 ft | 17 kts | 345° |
| 2026-05-04 12:46 | 37.29093 | 67.32331 | 1032 ft | 17 kts | 258° |
| 2026-05-04 12:46 | 37.29041 | 67.32101 | 1037 ft | 59 kts | 254° |
| 2026-05-04 12:46 | 37.28931 | 67.31622 | 1040 ft | 112 kts | 254° |
| 2026-05-04 12:46 | 37.28656 | 67.30423 | 1174 ft | 161 kts | 255° |
| 2026-05-04 12:47 | 37.28256 | 67.28609 | 2226 ft | 164 kts | 255° |
| 2026-05-04 12:47 | 37.27953 | 67.27221 | 3015 ft | 168 kts | 255° |
| 2026-05-04 12:47 | 37.27632 | 67.25760 | 3542 ft | 180 kts | 254° |
| 2026-05-04 12:47 | 37.27322 | 67.24157 | 4012 ft | 198 kts | 269° |
| 2026-05-04 12:48 | 37.27536 | 67.23034 | 4355 ft | 208 kts | 302° |
| 2026-05-04 12:48 | 37.28688 | 67.21888 | 5005 ft | 222 kts | 347° |
| 2026-05-04 12:48 | 37.30204 | 67.21991 | 6041 ft | 222 kts | 25° |
| 2026-05-04 12:48 | 37.31341 | 67.23268 | 6992 ft | 226 kts | 60° |
| 2026-05-04 12:49 | 37.31963 | 67.25119 | 7908 ft | 233 kts | 72° |
| 2026-05-04 12:49 | 37.32431 | 67.27070 | 8958 ft | 234 kts | 73° |
| 2026-05-04 12:49 | 37.32878 | 67.29060 | 9927 ft | 238 kts | 73° |
| 2026-05-04 12:49 | 37.33326 | 67.31080 | 10788 ft | 242 kts | 73° |
| 2026-05-04 12:50 | 37.33781 | 67.33139 | 11637 ft | 247 kts | 73° |
| 2026-05-04 12:50 | 37.34248 | 67.35234 | 12455 ft | 253 kts | 71° |
| 2026-05-04 12:50 | 37.35052 | 67.37266 | 12895 ft | 270 kts | 47° |
| 2026-05-04 12:50 | 37.36569 | 67.38769 | 13253 ft | 289 kts | 24° |
| 2026-05-04 12:51 | 37.38497 | 67.39767 | 13611 ft | 312 kts | 17° |
| 2026-05-04 12:51 | 37.40630 | 67.40680 | 13950 ft | 336 kts | 17° |
| 2026-05-04 12:51 | 37.42908 | 67.41711 | 14332 ft | 357 kts | 18° |
| 2026-05-04 12:51 | 37.45235 | 67.42861 | 15170 ft | 361 kts | 19° |
| 2026-05-04 12:52 | 37.47562 | 67.44073 | 16108 ft | 364 kts | 20° |
| 2026-05-04 12:52 | 37.49907 | 67.45322 | 17004 ft | 368 kts | 20° |
| 2026-05-04 12:52 | 37.52243 | 67.46577 | 17901 ft | 371 kts | 20° |
| 2026-05-04 12:52 | 37.54636 | 67.47866 | 18718 ft | 375 kts | 20° |
| 2026-05-04 12:53 | 37.57040 | 67.49160 | 19516 ft | 377 kts | 20° |
| 2026-05-04 12:53 | 37.59460 | 67.50464 | 20315 ft | 380 kts | 19° |
| 2026-05-04 12:53 | 37.61849 | 67.51934 | 21106 ft | 384 kts | 26° |
| 2026-05-04 12:53 | 37.64109 | 67.53804 | 21833 ft | 391 kts | 32° |
| 2026-05-04 12:54 | 37.66290 | 67.55892 | 22589 ft | 394 kts | 32° |
| 2026-05-04 12:54 | 37.68488 | 67.57979 | 23307 ft | 397 kts | 32° |
| 2026-05-04 12:54 | 37.70710 | 67.60080 | 23913 ft | 400 kts | 31° |
| 2026-05-04 12:54 | 37.72914 | 67.62165 | 24450 ft | 403 kts | 31° |
| 2026-05-04 12:55 | 37.75168 | 67.64299 | 24969 ft | 406 kts | 32° |
| 2026-05-04 12:55 | 37.77440 | 67.66454 | 25482 ft | 409 kts | 32° |
| 2026-05-04 12:55 | 37.79722 | 67.68621 | 25919 ft | 412 kts | 32° |
| 2026-05-04 12:55 | 37.82023 | 67.70807 | 26362 ft | 415 kts | 32° |
| 2026-05-04 12:56 | 37.84338 | 67.73010 | 26784 ft | 418 kts | 32° |
| 2026-05-04 12:56 | 37.86668 | 67.75228 | 27215 ft | 420 kts | 32° |
| 2026-05-04 12:56 | 37.89008 | 67.77458 | 27684 ft | 421 kts | 32° |
| 2026-05-04 12:56 | 37.91357 | 67.79698 | 28090 ft | 424 kts | 32° |
| 2026-05-04 12:57 | 37.93723 | 67.81956 | 28461 ft | 427 kts | 32° |
| 2026-05-04 12:57 | 37.96100 | 67.84226 | 28840 ft | 429 kts | 32° |
| 2026-05-04 12:57 | 37.98491 | 67.86512 | 29201 ft | 432 kts | 32° |
| 2026-05-04 12:57 | 38.00895 | 67.88811 | 29549 ft | 434 kts | 32° |
| 2026-05-04 12:58 | 38.03311 | 67.91125 | 29894 ft | 437 kts | 32° |
| 2026-05-04 12:58 | 38.05756 | 67.93465 | 29997 ft | 444 kts | 32° |
| 2026-05-04 12:58 | 38.08254 | 67.95857 | 30005 ft | 454 kts | 32° |
| 2026-05-04 12:59 | 38.13378 | 68.00775 | 30005 ft | 468 kts | 32° |
| 2026-05-04 12:59 | 38.18590 | 68.05793 | 30004 ft | 476 kts | 32° |
| 2026-05-04 13:00 | 38.23887 | 68.10902 | 30008 ft | 479 kts | 32° |
| 2026-05-04 13:00 | 38.29205 | 68.16040 | 30009 ft | 481 kts | 32° |
| 2026-05-04 13:01 | 38.34533 | 68.21197 | 30022 ft | 481 kts | 32° |
| 2026-05-04 13:01 | 38.39827 | 68.26238 | 30018 ft | 470 kts | 31° |
| 2026-05-04 13:02 | 38.45047 | 68.31162 | 30021 ft | 457 kts | 31° |
| 2026-05-04 13:02 | 38.47544 | 68.33535 | 30035 ft | 437 kts | 31° |
| 2026-05-04 13:02 | 38.49939 | 68.35813 | 30034 ft | 424 kts | 31° |
| 2026-05-04 13:03 | 38.54563 | 68.40654 | 30058 ft | 440 kts | 39° |
| 2026-05-04 13:03 | 38.58666 | 68.46504 | 30062 ft | 442 kts | 43° |
| 2026-05-04 13:04 | 38.62745 | 68.52381 | 30069 ft | 441 kts | 43° |
| 2026-05-04 13:04 | 38.66834 | 68.58277 | 30069 ft | 444 kts | 43° |
| 2026-05-04 13:05 | 38.70920 | 68.64190 | 30085 ft | 444 kts | 43° |
| 2026-05-04 13:05 | 38.75004 | 68.70115 | 30107 ft | 444 kts | 43° |
| 2026-05-04 13:06 | 38.79087 | 68.76053 | 30110 ft | 444 kts | 43° |
| 2026-05-04 13:06 | 38.83163 | 68.81993 | 30123 ft | 443 kts | 43° |
| 2026-05-04 13:07 | 38.87263 | 68.87967 | 30385 ft | 451 kts | 44° |
| 2026-05-04 13:07 | 38.89343 | 68.91002 | 30688 ft | 452 kts | 44° |
| 2026-05-04 13:07 | 38.91415 | 68.94035 | 31022 ft | 452 kts | 44° |
| 2026-05-04 13:07 | 38.93493 | 68.97080 | 31130 ft | 455 kts | 44° |
| 2026-05-04 13:08 | 38.95552 | 69.00101 | 31147 ft | 455 kts | 44° |
| 2026-05-04 13:08 | 38.99711 | 69.06208 | 31147 ft | 453 kts | 45° |
| 2026-05-04 13:09 | 39.03855 | 69.12300 | 31149 ft | 453 kts | 45° |
| 2026-05-04 13:09 | 39.08001 | 69.18411 | 31147 ft | 453 kts | 45° |
| 2026-05-04 13:10 | 39.12167 | 69.24550 | 31158 ft | 460 kts | 46° |
| 2026-05-04 13:10 | 39.16351 | 69.30739 | 31156 ft | 456 kts | 46° |
| 2026-05-04 13:11 | 39.20511 | 69.36908 | 31159 ft | 457 kts | 46° |
| 2026-05-04 13:11 | 39.24678 | 69.43098 | 31160 ft | 457 kts | 46° |
| 2026-05-04 13:12 | 39.28842 | 69.49296 | 31163 ft | 456 kts | 46° |
| 2026-05-04 13:12 | 39.32973 | 69.55449 | 31156 ft | 456 kts | 48° |
| 2026-05-04 13:13 | 39.37124 | 69.61649 | 31148 ft | 456 kts | 48° |
| 2026-05-04 13:13 | 39.41265 | 69.67851 | 31148 ft | 456 kts | 48° |
| 2026-05-04 13:14 | 39.45408 | 69.74066 | 31155 ft | 456 kts | 48° |
| 2026-05-04 13:14 | 39.49549 | 69.80290 | 31144 ft | 455 kts | 48° |
| 2026-05-04 13:15 | 39.53680 | 69.86512 | 31154 ft | 456 kts | 48° |
| 2026-05-04 13:15 | 39.57809 | 69.92742 | 31146 ft | 455 kts | 49° |
| 2026-05-04 13:16 | 39.61916 | 69.98953 | 31141 ft | 462 kts | 49° |
| 2026-05-04 13:16 | 39.66165 | 70.05391 | 31142 ft | 472 kts | 49° |
| 2026-05-04 13:17 | 39.70430 | 70.11868 | 31133 ft | 472 kts | 49° |
| 2026-05-04 13:17 | 39.74694 | 70.18358 | 30882 ft | 471 kts | 49° |
| 2026-05-04 13:17 | 39.76818 | 70.21595 | 30640 ft | 467 kts | 49° |
| 2026-05-04 13:18 | 39.78914 | 70.24793 | 30403 ft | 462 kts | 49° |
| 2026-05-04 13:18 | 39.80991 | 70.27964 | 30133 ft | 460 kts | 49° |
| 2026-05-04 13:18 | 39.83064 | 70.31134 | 29736 ft | 460 kts | 49° |
| 2026-05-04 13:18 | 39.85133 | 70.34301 | 29137 ft | 458 kts | 49° |
| 2026-05-04 13:19 | 39.87156 | 70.37399 | 28567 ft | 452 kts | 50° |
| 2026-05-04 13:19 | 39.89180 | 70.40501 | 27995 ft | 448 kts | 50° |
| 2026-05-04 13:19 | 39.91197 | 70.43597 | 27423 ft | 448 kts | 50° |
| 2026-05-04 13:19 | 39.93209 | 70.46688 | 26812 ft | 446 kts | 50° |
| 2026-05-04 13:20 | 39.95206 | 70.49760 | 26223 ft | 443 kts | 50° |
| 2026-05-04 13:20 | 39.97189 | 70.52812 | 25662 ft | 439 kts | 50° |
| 2026-05-04 13:20 | 39.99159 | 70.55847 | 25085 ft | 436 kts | 50° |
| 2026-05-04 13:20 | 40.01107 | 70.58852 | 24515 ft | 432 kts | 50° |
| 2026-05-04 13:21 | 40.03039 | 70.61835 | 23945 ft | 428 kts | 50° |
| 2026-05-04 13:21 | 40.04951 | 70.64790 | 23305 ft | 425 kts | 50° |
| 2026-05-04 13:21 | 40.06847 | 70.67725 | 22738 ft | 421 kts | 50° |
| 2026-05-04 13:21 | 40.08736 | 70.70650 | 22176 ft | 420 kts | 50° |
| 2026-05-04 13:22 | 40.10614 | 70.73563 | 21610 ft | 417 kts | 50° |
| 2026-05-04 13:22 | 40.12449 | 70.76410 | 21060 ft | 412 kts | 50° |
| 2026-05-04 13:22 | 40.14284 | 70.79260 | 20500 ft | 409 kts | 50° |
| 2026-05-04 13:22 | 40.16114 | 70.82105 | 19916 ft | 408 kts | 50° |
| 2026-05-04 13:23 | 40.17931 | 70.84933 | 19371 ft | 404 kts | 50° |
| 2026-05-04 13:23 | 40.19731 | 70.87738 | 18806 ft | 400 kts | 50° |
| 2026-05-04 13:23 | 40.21514 | 70.90519 | 18213 ft | 398 kts | 49° |
| 2026-05-04 13:23 | 40.23277 | 70.93271 | 17675 ft | 392 kts | 49° |
| 2026-05-04 13:24 | 40.25014 | 70.95984 | 17126 ft | 386 kts | 49° |
| 2026-05-04 13:24 | 40.26729 | 70.98663 | 16603 ft | 381 kts | 49° |
| 2026-05-04 13:24 | 40.28423 | 71.01312 | 16053 ft | 377 kts | 49° |
| 2026-05-04 13:25 | 40.31760 | 71.06538 | 15011 ft | 371 kts | 49° |
| 2026-05-04 13:25 | 40.33411 | 71.09125 | 14504 ft | 367 kts | 49° |
| 2026-05-04 13:25 | 40.35041 | 71.11684 | 13951 ft | 366 kts | 49° |
| 2026-05-04 13:25 | 40.36666 | 71.14235 | 13450 ft | 362 kts | 49° |
| 2026-05-04 13:26 | 40.38249 | 71.16721 | 12948 ft | 358 kts | 49° |
| 2026-05-04 13:26 | 40.39839 | 71.19220 | 12440 ft | 354 kts | 49° |
| 2026-05-04 13:26 | 40.41408 | 71.21688 | 11949 ft | 350 kts | 49° |
| 2026-05-04 13:26 | 40.42965 | 71.24137 | 11453 ft | 347 kts | 49° |
| 2026-05-04 13:27 | 40.44441 | 71.26626 | 10986 ft | 345 kts | 55° |
| 2026-05-04 13:27 | 40.45647 | 71.29334 | 10488 ft | 343 kts | 63° |
| 2026-05-04 13:27 | 40.46689 | 71.32102 | 10277 ft | 332 kts | 62° |
| 2026-05-04 13:27 | 40.47708 | 71.34755 | 10148 ft | 318 kts | 62° |
| 2026-05-04 13:28 | 40.48690 | 71.37299 | 9994 ft | 307 kts | 62° |
| 2026-05-04 13:28 | 40.49643 | 71.39765 | 9782 ft | 298 kts | 62° |
| 2026-05-04 13:28 | 40.50571 | 71.42170 | 9472 ft | 293 kts | 62° |
| 2026-05-04 13:28 | 40.51489 | 71.44555 | 9049 ft | 292 kts | 62° |
| 2026-05-04 13:29 | 40.52401 | 71.46924 | 8705 ft | 288 kts | 62° |
| 2026-05-04 13:29 | 40.53303 | 71.49272 | 8321 ft | 287 kts | 63° |
| 2026-05-04 13:29 | 40.54195 | 71.51603 | 7978 ft | 284 kts | 63° |
| 2026-05-04 13:29 | 40.55071 | 71.53890 | 7597 ft | 283 kts | 63° |
| 2026-05-04 13:30 | 40.55953 | 71.56195 | 7225 ft | 282 kts | 63° |
| 2026-05-04 13:30 | 40.56830 | 71.58492 | 6870 ft | 280 kts | 63° |
| 2026-05-04 13:30 | 40.57706 | 71.60785 | 6488 ft | 280 kts | 63° |
| 2026-05-04 13:30 | 40.58580 | 71.63074 | 6117 ft | 279 kts | 63° |
| 2026-05-04 13:31 | 40.59448 | 71.65349 | 5770 ft | 277 kts | 63° |
| 2026-05-04 13:31 | 40.60314 | 71.67622 | 5380 ft | 277 kts | 63° |
| 2026-05-04 13:31 | 40.60868 | 71.70026 | 5035 ft | 275 kts | 88° |
| 2026-05-04 13:31 | 40.60544 | 71.72458 | 4775 ft | 274 kts | 116° |
| 2026-05-04 13:32 | 40.59383 | 71.74478 | 4515 ft | 278 kts | 143° |
| 2026-05-04 13:32 | 40.57731 | 71.75670 | 4335 ft | 268 kts | 161° |
| 2026-05-04 13:32 | 40.55908 | 71.76124 | 4120 ft | 267 kts | 182° |
| 2026-05-04 13:32 | 40.54093 | 71.75950 | 4001 ft | 255 kts | 188° |
| 2026-05-04 13:33 | 40.52381 | 71.75739 | 3994 ft | 239 kts | 186° |
| 2026-05-04 13:33 | 40.50782 | 71.75587 | 3992 ft | 221 kts | 185° |
| 2026-05-04 13:33 | 40.49324 | 71.75473 | 4009 ft | 204 kts | 185° |
| 2026-05-04 13:33 | 40.48003 | 71.75375 | 3969 ft | 177 kts | 185° |
| 2026-05-04 13:34 | 40.46830 | 71.75287 | 3780 ft | 162 kts | 186° |
| 2026-05-04 13:34 | 40.45748 | 71.75205 | 3576 ft | 150 kts | 186° |
| 2026-05-04 13:34 | 40.44739 | 71.75130 | 3404 ft | 139 kts | 186° |
| 2026-05-04 13:34 | 40.43776 | 71.75057 | 3226 ft | 140 kts | 186° |
| 2026-05-04 13:35 | 40.42805 | 71.74985 | 3039 ft | 140 kts | 186° |
| 2026-05-04 13:35 | 40.40842 | 71.74839 | 2675 ft | 141 kts | 184° |
| 2026-05-04 13:35 | 40.39864 | 71.74766 | 2490 ft | 140 kts | 184° |
| 2026-05-04 13:36 | 40.38893 | 71.74694 | 2309 ft | 139 kts | 184° |
| 2026-05-04 13:36 | 40.38256 | 71.74647 | 2184 ft | 138 kts | 185° |
| 2026-05-04 13:36 | 40.37301 | 71.74575 | 2004 ft | 136 kts | 185° |
| 2026-05-04 13:36 | 40.36415 | 71.74506 | 1996 ft | 109 kts | 183° |
| 2026-05-04 13:37 | 40.35858 | 71.74466 | 2012 ft | 51 kts | 183° |
| 2026-05-04 13:37 | 40.35659 | 71.74459 | 2018 ft | 14 kts | 172° |
| 2026-05-04 13:37 | 40.35598 | 71.74557 | 2012 ft | 19 kts | 104° |
| 2026-05-04 13:37 | 40.35566 | 71.74724 | 2003 ft | 17 kts | 89° |
| 2026-05-04 13:38 | 40.35666 | 71.74795 | 1999 ft | 19 kts | 14° |
| 2026-05-04 13:38 | 40.35815 | 71.74843 | 1991 ft | 25 kts | 13° |
| 2026-05-04 13:38 | 40.35999 | 71.74902 | 1984 ft | 30 kts | 12° |
| 2026-05-04 13:38 | 40.36190 | 71.74924 | 1976 ft | 24 kts | 3° |
| 2026-05-04 13:39 | 40.36374 | 71.74937 | 1964 ft | 29 kts | 2° |
| 2026-05-04 13:39 | 40.36593 | 71.74951 | 1954 ft | 34 kts | 5° |
| 2026-05-04 13:39 | 40.36824 | 71.74972 | 1943 ft | 18 kts | 2° |
| 2026-05-04 13:39 | 40.36958 | 71.74981 | 1936 ft | 21 kts | 3° |
| 2026-05-04 13:40 | 40.37124 | 71.74984 | 1931 ft | 26 kts | 356° |
| 2026-05-04 13:40 | 40.37279 | 71.74999 | 1930 ft | 21 kts | 8° |
| 2026-05-04 13:40 | 40.37423 | 71.75030 | 1930 ft | 15 kts | 1° |
| 2026-05-04 13:40 | 40.37487 | 71.74937 | 1930 ft | 15 kts | 299° |
| 2026-05-04 13:41 | 40.37554 | 71.74908 | 1930 ft | 12 kts | 21° |
| 2026-05-04 13:41 | 40.37608 | 71.74962 | 1930 ft | 8 kts | 88° |
| 2026-05-04 13:41 | 40.37600 | 71.75003 | 1930 ft | 1 kts | 115° |
| 2026-05-04 13:42 | 40.37593 | 71.75021 | 1930 ft | 0 kts | 115° |